Time;durP1;ratioP1;P1;durP2;ratioP2;P2;SDS_P1;SDS_P2;PMS_P1;PMS_P2;Temp;Humidity;BMP_temperature;BMP_pressure;BME280_temperature;BME280_humidity;BME280_pressure;Samples;Min_cycle;Max_cycle;Signal;HPM_P1;HPM_P2
2023/02/19 00:01:56;;;;;;;7.32;0.90;;;;;;;;;;5091368;28;20066;-76
2023/02/19 00:04:26;;;;;;;2.40;0.50;;;;;;;;;;5091855;28;20511;-76
2023/02/19 00:06:57;;;;;;;5.25;1.00;;;;;;;;;;5110298;28;20047;-74
2023/02/19 00:09:30;;;;;;;5.47;0.80;;;;;;;;;;5109992;28;20537;-74
2023/02/19 00:12:00;;;;;;;1.90;0.43;;;;;;;;;;5092399;28;20047;-77
2023/02/19 00:14:30;;;;;;;2.05;0.60;;;;;;;;;;5109785;28;20047;-76
2023/02/19 00:17:00;;;;;;;0.52;0.50;;;;;;;;;;5109774;28;20054;-76
2023/02/19 00:19:30;;;;;;;1.88;0.73;;;;;;;;;;5110009;28;20485;-77
2023/02/19 00:22:04;;;;;;;2.25;0.45;;;;;;;;;;5109787;28;20533;-75
2023/02/19 00:24:34;;;;;;;1.50;0.45;;;;;;;;;;5109721;28;20047;-75
2023/02/19 00:27:04;;;;;;;5.68;0.77;;;;;;;;;;5110056;28;20043;-75
2023/02/19 00:29:34;;;;;;;3.20;0.90;;;;;;;;;;5109713;28;20043;-73
2023/02/19 00:32:04;;;;;;;2.15;0.70;;;;;;;;;;5090758;28;20410;-74
2023/02/19 00:34:36;;;;;;;4.32;0.60;;;;;;;;;;5109575;28;20050;-77
2023/02/19 00:37:06;;;;;;;2.45;0.70;;;;;;;;;;5109047;28;20054;-74
2023/02/19 00:39:35;;;;;;;;;;;;;;;;;;5110214;28;20062;-73
2023/02/19 00:42:06;;;;;;;5.47;0.60;;;;;;;;;;5108903;28;19920;-75
2023/02/19 00:44:35;;;;;;;;;;;;;;;;;;5108790;28;20044;-76
2023/02/19 00:47:07;;;;;;;1.92;0.90;;;;;;;;;;5109345;28;19931;-76
2023/02/19 00:49:39;;;;;;;1.70;0.80;;;;;;;;;;5089829;28;20059;-76
2023/02/19 00:52:09;;;;;;;2.35;1.38;;;;;;;;;;5090344;28;20522;-74
2023/02/19 00:54:40;;;;;;;4.40;1.63;;;;;;;;;;5109007;28;20522;-74
2023/02/19 00:57:11;;;;;;;4.10;1.58;;;;;;;;;;5089657;28;20044;-75
2023/02/19 00:59:43;;;;;;;1.70;0.98;;;;;;;;;;5109604;28;20044;-75
2023/02/19 01:02:14;;;;;;;3.20;1.05;;;;;;;;;;5090364;28;20051;-74
2023/02/19 01:04:46;;;;;;;5.15;0.98;;;;;;;;;;5108736;28;20051;-77
2023/02/19 01:07:18;;;;;;;2.45;1.00;;;;;;;;;;5089964;28;20070;-75
2023/02/19 01:09:51;;;;;;;3.80;0.70;;;;;;;;;;5108645;28;20044;-78
2023/02/19 01:12:24;;;;;;;4.68;0.70;;;;;;;;;;5089492;28;20047;-74
2023/02/19 01:14:54;;;;;;;2.70;0.80;;;;;;;;;;5089988;28;20051;-75
2023/02/19 01:17:25;;;;;;;7.32;1.20;;;;;;;;;;5089368;28;20166;-77
2023/02/19 01:19:56;;;;;;;3.90;0.68;;;;;;;;;;5091020;28;20050;-76
2023/02/19 01:22:27;;;;;;;3.72;0.70;;;;;;;;;;5089993;28;20047;-76
2023/02/19 01:24:58;;;;;;;5.28;0.82;;;;;;;;;;5090385;28;20434;-74
2023/02/19 01:27:28;;;;;;;7.30;1.35;;;;;;;;;;5108260;28;20048;-76
2023/02/19 01:29:59;;;;;;;3.20;1.05;;;;;;;;;;5089217;28;20062;-76
2023/02/19 01:32:29;;;;;;;2.35;0.75;;;;;;;;;;5107851;28;20051;-73
2023/02/19 01:34:59;;;;;;;5.13;0.80;;;;;;;;;;5089537;28;20058;-77
2023/02/19 01:37:30;;;;;;;3.03;1.15;;;;;;;;;;5108239;28;20402;-75
2023/02/19 01:40:02;;;;;;;2.58;0.75;;;;;;;;;;5089213;28;20055;-76
2023/02/19 01:42:33;;;;;;;6.05;1.67;;;;;;;;;;5108775;28;20118;-77
2023/02/19 01:45:23;;;;;;;;;;;;;;;;;;5089900;28;20052;-74
2023/02/19 01:48:20;;;;;;;3.03;0.90;;;;;;;;;;5107852;28;19930;-74
2023/02/19 01:51:02;;;;;;;2.85;0.80;;;;;;;;;;5099068;28;20056;-74
2023/02/19 01:53:36;;;;;;;3.60;0.88;;;;;;;;;;5089376;28;20069;-75
2023/02/19 01:56:08;;;;;;;3.58;0.90;;;;;;;;;;5107110;28;20048;-75
2023/02/19 01:58:41;;;;;;;2.47;0.90;;;;;;;;;;5089579;28;20074;-73
2023/02/19 02:01:13;;;;;;;1.73;0.80;;;;;;;;;;5088863;28;20067;-76
2023/02/19 02:03:47;;;;;;;4.55;0.80;;;;;;;;;;5107243;28;20086;-77
2023/02/19 02:06:30;;;;;;;2.38;0.80;;;;;;;;;;5107704;28;20055;-77
2023/02/19 02:11:52;;;;;;;3.10;1.08;;;;;;;;;;5106972;28;20040;-77
2023/02/19 02:14:29;;;;;;;3.45;0.85;;;;;;;;;;5107661;28;20048;-75
2023/02/19 02:17:18;;;;;;;2.58;0.70;;;;;;;;;;5089134;28;20430;-77
2023/02/19 02:20:16;;;;;;;4.75;1.17;;;;;;;;;;5107548;28;20051;-76
2023/02/19 02:23:09;;;;;;;2.03;0.65;;;;;;;;;;5101264;28;20063;-76
2023/02/19 02:26:21;;;;;;;4.15;0.95;;;;;;;;;;5089139;28;20055;-76
2023/02/19 02:29:10;;;;;;;1.45;0.63;;;;;;;;;;5089451;28;20118;-75
2023/02/19 02:31:49;;;;;;;5.97;0.90;;;;;;;;;;5107368;28;20089;-75
2023/02/19 02:34:32;;;;;;;3.92;0.70;;;;;;;;;;5107791;28;20039;-77
2023/02/19 02:37:06;;;;;;;1.65;0.60;;;;;;;;;;5106935;28;20600;-74
2023/02/19 02:39:38;;;;;;;2.92;0.85;;;;;;;;;;5088320;28;20051;-75
2023/02/19 02:42:27;;;;;;;2.60;0.70;;;;;;;;;;5106245;28;20066;-77
2023/02/19 02:45:35;;;;;;;;;;;;;;;;;;5089407;28;20047;-76
2023/02/19 02:48:54;;;;;;;3.53;0.77;;;;;;;;;;5061860;28;19930;-75
2023/02/19 02:51:33;;;;;;;1.45;0.80;;;;;;;;;;5088505;28;20056;-75
2023/02/19 02:57:13;;;;;;;1.48;0.50;;;;;;;;;;5088740;28;20059;-75
2023/02/19 02:59:49;;;;;;;1.50;0.52;;;;;;;;;;5088727;28;20056;-74
2023/02/19 03:02:28;;;;;;;2.78;0.73;;;;;;;;;;5089219;28;20048;-76
2023/02/19 03:08:05;;;;;;;2.55;0.80;;;;;;;;;;5108626;28;20044;-73
2023/02/19 03:10:38;;;;;;;1.33;0.60;;;;;;;;;;5110966;28;20419;-73
2023/02/19 03:19:20;;;;;;;0.90;0.50;;;;;;;;;;5093047;28;20056;-76
2023/02/19 03:21:53;;;;;;;2.10;0.52;;;;;;;;;;5093085;28;20528;-77
2023/02/19 03:27:21;;;;;;;4.07;0.60;;;;;;;;;;5092089;28;20062;-77
2023/02/19 03:30:01;;;;;;;4.10;0.70;;;;;;;;;;5092008;28;20043;-74
2023/02/19 03:32:47;;;;;;;1.05;0.47;;;;;;;;;;5092680;28;20063;-72
2023/02/19 03:35:25;;;;;;;1.70;0.50;;;;;;;;;;5111117;28;20051;-76
2023/02/19 03:38:17;;;;;;;3.53;0.50;;;;;;;;;;5092089;28;20418;-74
2023/02/19 03:41:05;;;;;;;3.38;0.70;;;;;;;;;;5076606;28;20051;-74
2023/02/19 03:43:45;;;;;;;0.57;0.50;;;;;;;;;;5076821;28;20056;-76
2023/02/19 03:46:24;;;;;;;2.38;0.45;;;;;;;;;;5091773;28;20055;-75
2023/02/19 03:49:05;;;;;;;4.45;0.55;;;;;;;;;;5091569;28;20059;-76
2023/02/19 03:51:43;;;;;;;2.17;0.65;;;;;;;;;;5091262;28;20082;-74
2023/02/19 03:54:34;;;;;;;0.65;0.43;;;;;;;;;;5110041;28;20094;-77
2023/02/19 03:57:35;;;;;;;0.60;0.38;;;;;;;;;;5110487;28;20058;-77
2023/02/19 04:00:33;;;;;;;1.75;0.55;;;;;;;;;;5110210;28;20051;-75
2023/02/19 04:03:27;;;;;;;2.78;0.55;;;;;;;;;;5110430;28;20036;-75
2023/02/19 04:06:02;;;;;;;2.00;0.60;;;;;;;;;;5093078;28;20044;-77
2023/02/19 04:08:38;;;;;;;2.58;0.40;;;;;;;;;;5091350;28;20426;-74
2023/02/19 04:11:09;;;;;;;;;;;;;;;;;;5091866;28;20059;-77
2023/02/19 04:14:04;;;;;;;1.42;0.55;;;;;;;;;;5110180;28;19923;-75
2023/02/19 04:16:39;;;;;;;0.98;0.60;;;;;;;;;;5110570;28;20402;-75
2023/02/19 04:19:15;;;;;;;2.78;0.43;;;;;;;;;;5108486;28;20048;-77
2023/02/19 04:21:49;;;;;;;1.02;0.32;;;;;;;;;;5074814;28;20056;-76
2023/02/19 04:24:35;;;;;;;2.15;0.60;;;;;;;;;;5110059;28;20522;-75
2023/02/19 04:27:07;;;;;;;2.60;0.60;;;;;;;;;;5109795;28;20048;-75
2023/02/19 04:29:40;;;;;;;1.08;0.40;;;;;;;;;;5109584;28;20507;-77
2023/02/19 04:32:13;;;;;;;0.85;0.38;;;;;;;;;;5110092;28;20052;-74
2023/02/19 04:34:43;;;;;;;5.22;0.70;;;;;;;;;;5109551;28;20046;-76
2023/02/19 04:37:13;;;;;;;0.50;0.40;;;;;;;;;;5109400;28;20051;-76
2023/02/19 04:39:44;;;;;;;2.45;0.52;;;;;;;;;;5109367;28;20510;-74
2023/02/19 04:42:14;;;;;;;1.73;0.60;;;;;;;;;;5109764;28;20047;-74
2023/02/19 04:44:44;;;;;;;2.05;0.40;;;;;;;;;;5109504;28;20050;-77
2023/02/19 04:47:18;;;;;;;0.77;0.60;;;;;;;;;;5091897;28;20051;-76
2023/02/19 04:49:50;;;;;;;4.43;0.50;;;;;;;;;;5109502;28;20060;-74
2023/02/19 04:52:19;;;;;;;2.00;0.45;;;;;;;;;;5090921;28;20406;-76
2023/02/19 04:54:50;;;;;;;1.10;0.50;;;;;;;;;;5109667;28;20047;-74
2023/02/19 04:57:20;;;;;;;0.77;0.50;;;;;;;;;;5109768;28;20044;-76
2023/02/19 04:59:51;;;;;;;4.07;0.43;;;;;;;;;;5109555;28;20047;-75
2023/02/19 05:02:22;;;;;;;0.93;0.60;;;;;;;;;;5109313;28;20055;-75
2023/02/19 05:04:52;;;;;;;1.50;0.60;;;;;;;;;;5108436;28;20048;-75
2023/02/19 05:07:23;;;;;;;1.70;0.88;;;;;;;;;;5108831;28;20050;-76
2023/02/19 05:09:53;;;;;;;2.45;0.60;;;;;;;;;;5109260;28;20044;-75
2023/02/19 05:12:24;;;;;;;2.58;0.68;;;;;;;;;;5107968;28;20395;-76
2023/02/19 05:14:53;;;;;;;1.23;0.50;;;;;;;;;;5108702;28;20039;-77
2023/02/19 05:17:25;;;;;;;0.90;0.40;;;;;;;;;;5108642;28;20050;-75
2023/02/19 05:19:55;;;;;;;1.27;0.50;;;;;;;;;;5091552;28;20043;-76
2023/02/19 05:22:27;;;;;;;3.25;0.70;;;;;;;;;;5108432;28;20421;-74
2023/02/19 05:24:59;;;;;;;1.55;0.43;;;;;;;;;;5109020;28;20048;-75
2023/02/19 05:27:31;;;;;;;3.15;1.13;;;;;;;;;;5108789;28;20059;-73
2023/02/19 05:30:01;;;;;;;2.70;0.80;;;;;;;;;;5107978;28;20391;-74
2023/02/19 05:32:33;;;;;;;0.68;0.52;;;;;;;;;;5108085;28;20051;-76
2023/02/19 05:35:04;;;;;;;4.63;0.70;;;;;;;;;;5108167;28;20047;-75
2023/02/19 05:37:35;;;;;;;1.08;0.60;;;;;;;;;;5108368;28;20050;-76
2023/02/19 05:40:05;;;;;;;2.25;0.70;;;;;;;;;;5108407;28;20076;-74
2023/02/19 05:42:35;;;;;;;7.57;0.65;;;;;;;;;;5109230;28;20395;-76
2023/02/19 05:45:06;;;;;;;4.47;0.90;;;;;;;;;;5108282;28;20048;-74
2023/02/19 05:47:36;;;;;;;1.02;0.45;;;;;;;;;;5108114;28;20065;-77
2023/02/19 05:50:08;;;;;;;0.57;0.50;;;;;;;;;;5108407;28;20043;-75
2023/02/19 05:52:37;;;;;;;2.72;0.60;;;;;;;;;;5090383;28;20047;-75
2023/02/19 05:55:09;;;;;;;2.20;0.90;;;;;;;;;;5108019;28;20055;-75
2023/02/19 05:57:45;;;;;;;3.45;0.82;;;;;;;;;;5108593;28;20482;-73
2023/02/19 06:00:18;;;;;;;0.80;0.50;;;;;;;;;;5090125;28;20052;-74
2023/02/19 06:02:48;;;;;;;1.40;0.60;;;;;;;;;;5108214;28;20495;-77
2023/02/19 06:05:19;;;;;;;3.22;0.70;;;;;;;;;;5108086;28;20048;-74
2023/02/19 06:07:50;;;;;;;4.68;1.10;;;;;;;;;;5108621;28;20044;-76
2023/02/19 06:10:21;;;;;;;0.73;0.55;;;;;;;;;;5107510;28;20046;-74
2023/02/19 06:12:53;;;;;;;7.03;0.93;;;;;;;;;;5108112;28;20510;-75
2023/02/19 06:15:23;;;;;;;3.00;0.60;;;;;;;;;;5107727;28;20048;-73
2023/02/19 06:17:54;;;;;;;3.85;0.60;;;;;;;;;;5106801;28;20048;-76
2023/02/19 06:20:25;;;;;;;1.42;0.63;;;;;;;;;;5107679;28;20050;-75
2023/02/19 06:22:56;;;;;;;4.45;1.00;;;;;;;;;;5090163;28;20052;-73
2023/02/19 06:25:27;;;;;;;5.18;1.00;;;;;;;;;;5107470;28;20059;-75
2023/02/19 06:28:00;;;;;;;5.15;1.00;;;;;;;;;;5089631;28;20051;-74
2023/02/19 06:30:31;;;;;;;1.58;0.90;;;;;;;;;;5107879;28;20411;-77
2023/02/19 06:33:01;;;;;;;2.17;1.05;;;;;;;;;;5089212;28;20498;-76
2023/02/19 06:35:31;;;;;;;3.05;0.90;;;;;;;;;;5089759;28;20040;-72
2023/02/19 06:38:02;;;;;;;1.63;1.00;;;;;;;;;;5107334;28;20054;-75
2023/02/19 06:40:32;;;;;;;4.95;0.77;;;;;;;;;;5107264;28;20048;-73
2023/02/19 06:43:03;;;;;;;3.15;1.10;;;;;;;;;;5106270;28;20047;-73
2023/02/19 06:45:33;;;;;;;4.07;1.17;;;;;;;;;;5107778;28;20414;-77
2023/02/19 06:48:04;;;;;;;;;;;;;;;;;;5107450;28;20043;-75
2023/02/19 06:50:35;;;;;;;3.30;0.98;;;;;;;;;;5106982;28;19924;-74
2023/02/19 06:53:05;;;;;;;1.23;0.90;;;;;;;;;;5106889;28;20055;-74
2023/02/19 06:55:35;;;;;;;3.33;0.90;;;;;;;;;;5107360;28;20059;-74
2023/02/19 06:58:06;;;;;;;1.48;0.90;;;;;;;;;;5106816;28;20058;-76
2023/02/19 07:00:37;;;;;;;3.08;1.30;;;;;;;;;;5107033;28;20043;-76
2023/02/19 07:03:08;;;;;;;4.97;1.20;;;;;;;;;;5107138;28;20051;-74
2023/02/19 07:05:43;;;;;;;4.35;1.20;;;;;;;;;;5106831;28;20074;-74
2023/02/19 07:08:16;;;;;;;3.58;1.30;;;;;;;;;;5106930;28;20055;-74
2023/02/19 07:10:55;;;;;;;1.90;1.05;;;;;;;;;;5107207;28;20498;-75
2023/02/19 07:13:26;;;;;;;8.30;1.10;;;;;;;;;;5106619;28;20059;-75
2023/02/19 07:16:02;;;;;;;5.32;1.20;;;;;;;;;;5107375;28;20070;-75
2023/02/19 07:18:33;;;;;;;2.75;1.10;;;;;;;;;;5107290;28;20433;-74
2023/02/19 07:21:06;;;;;;;3.47;1.10;;;;;;;;;;5107559;28;20478;-75
2023/02/19 07:23:38;;;;;;;5.10;1.70;;;;;;;;;;5106993;28;20495;-75
2023/02/19 07:26:11;;;;;;;3.72;1.40;;;;;;;;;;5106878;28;20383;-73
2023/02/19 07:28:46;;;;;;;2.50;0.90;;;;;;;;;;5088324;28;20055;-77
2023/02/19 07:31:19;;;;;;;1.95;1.00;;;;;;;;;;5106927;28;20043;-77
2023/02/19 07:33:50;;;;;;;2.95;0.93;;;;;;;;;;5106790;28;20050;-76
2023/02/19 07:36:23;;;;;;;7.10;1.13;;;;;;;;;;5106938;28;20055;-75
2023/02/19 07:38:58;;;;;;;8.75;1.33;;;;;;;;;;5107186;28;20055;-74
2023/02/19 07:41:28;;;;;;;3.00;1.20;;;;;;;;;;5088801;28;20075;-73
2023/02/19 07:43:58;;;;;;;2.08;0.80;;;;;;;;;;5107065;28;20058;-74
2023/02/19 07:46:29;;;;;;;2.15;1.23;;;;;;;;;;5106937;28;20048;-76
2023/02/19 07:48:58;;;;;;;;;;;;;;;;;;5107096;28;20398;-73
2023/02/19 07:51:29;;;;;;;10.10;1.20;;;;;;;;;;5106599;28;19928;-75
2023/02/19 07:53:59;;;;;;;2.05;1.20;;;;;;;;;;5088616;28;20091;-74
2023/02/19 07:56:29;;;;;;;5.18;1.00;;;;;;;;;;5110400;28;20044;-75
2023/02/19 07:58:59;;;;;;;;;;;;;;;;;;5110724;28;20047;-77
2023/02/19 08:04:18;;;;;;;2.97;1.02;;;;;;;;;;5110253;28;20635;-74
2023/02/19 08:06:49;;;;;;;2.08;0.82;;;;;;;;;;5109864;28;20066;-74
2023/02/19 08:09:19;;;;;;;1.42;0.85;;;;;;;;;;5109863;28;20518;-74
2023/02/19 08:14:37;;;;;;;3.63;1.15;;;;;;;;;;5110072;28;20486;-76
2023/02/19 08:17:08;;;;;;;9.30;1.05;;;;;;;;;;5109977;28;20487;-75
2023/02/19 08:19:39;;;;;;;1.08;0.77;;;;;;;;;;5109758;28;20067;-75
2023/02/19 08:22:09;;;;;;;2.17;0.90;;;;;;;;;;5109763;28;20054;-75
2023/02/19 08:24:41;;;;;;;2.28;0.90;;;;;;;;;;5091061;28;20418;-76
2023/02/19 08:27:12;;;;;;;2.50;0.90;;;;;;;;;;5110129;28;20047;-77
2023/02/19 08:29:43;;;;;;;3.65;1.10;;;;;;;;;;5109493;28;20051;-75
2023/02/19 08:32:13;;;;;;;1.80;0.95;;;;;;;;;;5109485;28;20048;-74
2023/02/19 08:34:43;;;;;;;4.00;1.00;;;;;;;;;;5109446;28;20521;-75
2023/02/19 08:37:13;;;;;;;;;;;;;;;;;;5109874;28;20044;-75
2023/02/19 08:39:43;;;;;;;2.58;0.80;;;;;;;;;;5109569;28;19923;-77
2023/02/19 08:42:14;;;;;;;3.03;0.90;;;;;;;;;;5109752;28;20048;-76
2023/02/19 08:44:44;;;;;;;2.03;1.00;;;;;;;;;;5109551;28;20036;-73
2023/02/19 08:47:14;;;;;;;3.53;1.00;;;;;;;;;;5109614;28;20482;-74
2023/02/19 08:49:45;;;;;;;2.55;1.30;;;;;;;;;;5108579;28;20499;-75
2023/02/19 08:52:17;;;;;;;2.00;1.00;;;;;;;;;;5109035;28;20048;-75
2023/02/19 08:54:47;;;;;;;1.95;0.90;;;;;;;;;;5109636;28;20502;-76
2023/02/19 08:57:18;;;;;;;6.82;1.10;;;;;;;;;;5090230;28;20051;-77
2023/02/19 08:59:50;;;;;;;5.38;1.45;;;;;;;;;;5109007;28;20052;-76
2023/02/19 09:02:20;;;;;;;3.95;1.58;;;;;;;;;;5108764;28;20047;-75
2023/02/19 09:04:50;;;;;;;4.43;1.15;;;;;;;;;;5109294;28;20048;-75
2023/02/19 09:07:20;;;;;;;;;;;;;;;;;;5109575;28;20391;-77
2023/02/19 09:09:52;;;;;;;3.10;0.93;;;;;;;;;;5109371;28;19920;-73
2023/02/19 09:12:22;;;;;;;4.18;1.20;;;;;;;;;;5108777;28;20036;-77
2023/02/19 09:14:54;;;;;;;3.33;0.82;;;;;;;;;;5091111;28;20055;-76
2023/02/19 09:17:24;;;;;;;2.75;0.80;;;;;;;;;;5108838;28;20040;-78
2023/02/19 09:19:54;;;;;;;4.47;1.00;;;;;;;;;;5108866;28;20054;-78
2023/02/19 09:22:25;;;;;;;3.20;1.00;;;;;;;;;;5108783;28;20513;-76
2023/02/19 09:24:55;;;;;;;6.88;1.10;;;;;;;;;;5108612;28;20525;-74
2023/02/19 09:27:26;;;;;;;4.35;1.35;;;;;;;;;;5108669;28;20044;-75
2023/02/19 09:29:58;;;;;;;7.18;1.27;;;;;;;;;;5108993;28;20410;-77
2023/02/19 09:32:31;;;;;;;2.20;1.23;;;;;;;;;;5108656;28;20417;-75
2023/02/19 09:35:01;;;;;;;4.18;1.10;;;;;;;;;;5108715;28;20043;-74
2023/02/19 09:37:30;;;;;;;5.13;1.15;;;;;;;;;;5108370;28;20055;-73
2023/02/19 09:40:02;;;;;;;3.78;1.23;;;;;;;;;;5108268;28;20047;-75
2023/02/19 09:42:32;;;;;;;;;;;;;;;;;;5109084;28;20048;-75
2023/02/19 09:45:04;;;;;;;5.63;1.08;;;;;;;;;;5107806;28;19978;-75
2023/02/19 09:47:35;;;;;;;4.18;1.10;;;;;;;;;;5108388;28;20051;-77
2023/02/19 09:50:16;;;;;;;2.25;1.10;;;;;;;;;;5088696;28;20066;-75
2023/02/19 09:53:01;;;;;;;5.38;0.98;;;;;;;;;;5108326;28;20039;-75
2023/02/19 09:55:42;;;;;;;4.30;0.93;;;;;;;;;;5108269;28;20054;-73
2023/02/19 09:58:43;;;;;;;3.22;1.35;;;;;;;;;;5089486;28;20059;-78
2023/02/19 10:01:14;;;;;;;4.20;0.88;;;;;;;;;;5108170;28;20511;-79
2023/02/19 10:03:48;;;;;;;5.88;1.20;;;;;;;;;;5107808;28;20048;-75
2023/02/19 10:06:23;;;;;;;2.92;1.23;;;;;;;;;;5107559;28;20047;-76
2023/02/19 10:09:15;;;;;;;3.97;1.17;;;;;;;;;;5107524;28;20524;-78
2023/02/19 10:11:46;;;;;;;2.85;0.90;;;;;;;;;;5107627;28;20052;-73
2023/02/19 10:14:24;;;;;;;4.22;0.88;;;;;;;;;;5108052;28;20047;-76
2023/02/19 10:16:58;;;;;;;3.97;0.98;;;;;;;;;;5106567;28;20521;-76
2023/02/19 10:19:28;;;;;;;1.98;0.95;;;;;;;;;;5107692;28;20055;-74
2023/02/19 10:21:58;;;;;;;;;;;;;;;;;;5107982;28;20061;-76
2023/02/19 10:24:29;;;;;;;7.97;1.40;;;;;;;;;;5107429;28;19936;-74
2023/02/19 10:27:00;;;;;;;11.50;1.58;;;;;;;;;;5108200;28;20063;-77
2023/02/19 10:29:30;;;;;;;7.78;1.38;;;;;;;;;;5107872;28;20036;-74
2023/02/19 10:32:22;;;;;;;3.40;0.93;;;;;;;;;;5107341;28;20070;-77
2023/02/19 10:35:14;;;;;;;2.05;0.90;;;;;;;;;;5107586;28;20048;-76
2023/02/19 10:37:50;;;;;;;3.28;1.00;;;;;;;;;;5107196;28;20044;-74
2023/02/19 10:40:24;;;;;;;2.30;0.85;;;;;;;;;;5107712;28;20410;-77
2023/02/19 10:42:58;;;;;;;2.38;1.30;;;;;;;;;;5107794;28;20054;-75
2023/02/19 10:45:34;;;;;;;1.50;1.02;;;;;;;;;;5107298;28;20047;-76
2023/02/19 10:48:06;;;;;;;2.60;0.93;;;;;;;;;;5106956;28;20051;-73
2023/02/19 10:50:45;;;;;;;2.30;0.90;;;;;;;;;;5106721;28;20036;-76
2023/02/19 10:53:22;;;;;;;1.83;0.75;;;;;;;;;;5107270;28;20429;-78
2023/02/19 10:56:30;;;;;;;5.22;1.00;;;;;;;;;;5106949;28;20059;-76
2023/02/19 10:59:25;;;;;;;3.03;1.02;;;;;;;;;;5106694;28;20051;-74
2023/02/19 11:02:16;;;;;;;11.80;2.15;;;;;;;;;;5107158;28;20043;-75
2023/02/19 11:05:24;;;;;;;3.50;1.17;;;;;;;;;;5106866;28;20066;-77
2023/02/19 11:07:56;;;;;;;2.47;1.30;;;;;;;;;;5089890;28;20044;-77
2023/02/19 11:10:28;;;;;;;3.58;1.50;;;;;;;;;;5107135;28;20406;-73
2023/02/19 11:13:02;;;;;;;7.18;2.13;;;;;;;;;;5106996;28;20403;-74
2023/02/19 11:15:36;;;;;;;6.57;2.25;;;;;;;;;;5106518;28;20051;-73
2023/02/19 11:18:13;;;;;;;8.43;2.05;;;;;;;;;;5106866;28;20502;-75
2023/02/19 11:21:02;;;;;;;7.75;2.42;;;;;;;;;;5107019;28;20117;-76
2023/02/19 11:23:46;;;;;;;4.80;2.42;;;;;;;;;;5107164;28;20039;-74
2023/02/19 11:26:25;;;;;;;5.63;1.95;;;;;;;;;;5106591;28;20050;-74
2023/02/19 11:28:58;;;;;;;3.58;1.60;;;;;;;;;;5107158;28;20062;-75
2023/02/19 11:31:34;;;;;;;8.82;1.60;;;;;;;;;;5111651;28;20039;-76
2023/02/19 11:34:19;;;;;;;3.08;0.60;;;;;;;;;;5110754;28;20044;-76
2023/02/19 11:37:14;;;;;;;1.30;0.63;;;;;;;;;;5110627;28;20047;-75
2023/02/19 11:39:48;;;;;;;2.20;0.60;;;;;;;;;;5092829;28;20050;-76
2023/02/19 11:42:35;;;;;;;3.60;0.70;;;;;;;;;;5110797;28;20050;-76
2023/02/19 11:45:14;;;;;;;2.83;0.80;;;;;;;;;;5110582;28;20058;-78
2023/02/19 11:48:02;;;;;;;3.40;0.95;;;;;;;;;;5092785;28;20051;-75
2023/02/19 11:51:08;;;;;;;2.10;0.77;;;;;;;;;;5110743;28;20517;-73
2023/02/19 11:53:47;;;;;;;6.32;0.60;;;;;;;;;;5110094;28;20384;-76
2023/02/19 11:56:20;;;;;;;4.03;1.00;;;;;;;;;;5111025;28;20055;-77
2023/02/19 11:58:57;;;;;;;3.75;0.98;;;;;;;;;;5074702;28;20529;-76
2023/02/19 12:01:38;;;;;;;2.45;1.00;;;;;;;;;;5092687;28;20050;-78
2023/02/19 12:04:13;;;;;;;3.85;1.17;;;;;;;;;;5092219;28;20062;-75
2023/02/19 12:06:44;;;;;;;3.28;0.90;;;;;;;;;;5110596;28;20047;-76
2023/02/19 12:09:47;;;;;;;4.00;0.60;;;;;;;;;;5110212;28;20427;-76
2023/02/19 12:12:23;;;;;;;1.73;0.70;;;;;;;;;;5110112;28;20048;-78
2023/02/19 12:15:02;;;;;;;3.35;0.80;;;;;;;;;;5109310;28;20050;-79
2023/02/19 12:18:04;;;;;;;1.83;0.88;;;;;;;;;;5109804;28;20525;-77
2023/02/19 12:20:50;;;;;;;3.38;0.80;;;;;;;;;;5110275;28;20470;-79
2023/02/19 12:23:44;;;;;;;4.93;0.90;;;;;;;;;;5110291;28;20040;-73
2023/02/19 12:26:20;;;;;;;1.42;0.88;;;;;;;;;;5109097;28;20040;-76
2023/02/19 12:29:16;;;;;;;3.75;0.90;;;;;;;;;;5091747;28;20051;-74
2023/02/19 12:32:11;;;;;;;0.95;0.68;;;;;;;;;;5091162;28;20058;-77
2023/02/19 12:35:03;;;;;;;4.65;0.80;;;;;;;;;;5084568;28;20052;-73
2023/02/19 12:37:51;;;;;;;3.45;1.20;;;;;;;;;;5088893;28;20059;-76
2023/02/19 12:40:55;;;;;;;3.30;0.60;;;;;;;;;;5088457;28;20052;-79
2023/02/19 12:43:28;;;;;;;2.38;0.60;;;;;;;;;;5088763;28;20052;-76
2023/02/19 12:46:18;;;;;;;4.47;1.20;;;;;;;;;;5089920;28;20048;-77
2023/02/19 12:48:57;;;;;;;5.60;0.57;;;;;;;;;;5070610;28;20414;-77
2023/02/19 12:51:32;;;;;;;3.33;0.55;;;;;;;;;;5088908;28;20052;-76
2023/02/19 12:54:22;;;;;;;5.70;0.70;;;;;;;;;;5089095;28;20450;-76
2023/02/19 12:57:05;;;;;;;5.28;0.55;;;;;;;;;;5088607;28;20040;-78
2023/02/19 13:00:01;;;;;;;3.90;0.70;;;;;;;;;;5088374;28;20063;-78
2023/02/19 13:02:45;;;;;;;6.80;0.65;;;;;;;;;;5088534;28;20048;-75
2023/02/19 13:05:18;;;;;;;5.10;0.60;;;;;;;;;;5088914;28;20411;-76
2023/02/19 13:08:15;;;;;;;5.22;0.77;;;;;;;;;;5089163;28;20044;-74
2023/02/19 13:10:55;;;;;;;9.45;1.05;;;;;;;;;;5088416;28;20040;-75
2023/02/19 13:13:34;;;;;;;5.38;0.43;;;;;;;;;;5088428;28;20052;-75
2023/02/19 13:16:14;;;;;;;5.68;0.73;;;;;;;;;;5088286;28;20051;-74
2023/02/19 13:19:00;;;;;;;2.72;0.55;;;;;;;;;;5096052;28;20043;-73
2023/02/19 13:24:33;;;;;;;2.70;1.25;;;;;;;;;;5093870;28;20044;-75
2023/02/19 13:27:37;;;;;;;3.00;0.50;;;;;;;;;;5088235;28;20047;-75
2023/02/19 13:30:28;;;;;;;7.82;0.90;;;;;;;;;;5058201;28;20067;-75
2023/02/19 13:33:21;;;;;;;2.75;0.60;;;;;;;;;;5088910;28;20055;-74
2023/02/19 13:36:07;;;;;;;2.38;0.60;;;;;;;;;;5088178;28;20491;-74
2023/02/19 13:38:43;;;;;;;4.07;0.52;;;;;;;;;;5070716;28;20052;-76
2023/02/19 13:41:32;;;;;;;2.58;0.47;;;;;;;;;;5087876;28;20043;-75
2023/02/19 13:44:07;;;;;;;3.33;0.90;;;;;;;;;;5087496;28;20044;-75
2023/02/19 13:46:43;;;;;;;2.58;0.70;;;;;;;;;;5088080;28;20043;-74
2023/02/19 13:49:34;;;;;;;4.35;1.10;;;;;;;;;;5087751;28;20056;-74
2023/02/19 13:52:32;;;;;;;3.33;0.82;;;;;;;;;;5072534;28;20067;-76
2023/02/19 13:55:41;;;;;;;2.25;0.52;;;;;;;;;;5077769;28;20055;-74
2023/02/19 13:58:36;;;;;;;5.65;0.73;;;;;;;;;;5087500;28;20044;-76
2023/02/19 14:01:12;;;;;;;9.30;0.65;;;;;;;;;;5068867;28;20040;-75
2023/02/19 14:03:42;;;;;;;;;;;;;;;;;;5088156;28;20048;-75
2023/02/19 14:06:17;;;;;;;5.80;0.50;;;;;;;;;;5067950;28;19927;-74
2023/02/19 14:08:59;;;;;;;2.60;0.60;;;;;;;;;;5086240;28;20059;-76
2023/02/19 14:11:47;;;;;;;2.45;0.80;;;;;;;;;;5079065;28;20052;-75
2023/02/19 14:14:33;;;;;;;6.47;0.70;;;;;;;;;;5108179;28;20039;-75
2023/02/19 14:17:27;;;;;;;5.05;0.70;;;;;;;;;;5072410;28;20047;-74
2023/02/19 14:20:23;;;;;;;4.95;0.63;;;;;;;;;;5108188;28;20035;-76
2023/02/19 14:23:08;;;;;;;4.38;0.95;;;;;;;;;;5108023;28;20046;-76
2023/02/19 14:25:50;;;;;;;3.58;0.50;;;;;;;;;;5107830;28;20043;-74
2023/02/19 14:28:21;;;;;;;5.72;0.50;;;;;;;;;;5105834;28;20047;-75
2023/02/19 14:31:34;;;;;;;6.35;1.00;;;;;;;;;;5107009;28;20043;-76
2023/02/19 14:34:26;;;;;;;1.38;0.40;;;;;;;;;;5106503;28;20044;-75
2023/02/19 14:37:00;;;;;;;2.60;0.40;;;;;;;;;;5107016;28;20044;-74
2023/02/19 14:39:36;;;;;;;3.28;0.80;;;;;;;;;;5106848;28;20040;-74
2023/02/19 14:42:26;;;;;;;4.35;0.80;;;;;;;;;;5090301;28;20048;-75
2023/02/19 14:44:59;;;;;;;3.55;1.10;;;;;;;;;;5107148;28;20051;-75
2023/02/19 14:47:33;;;;;;;4.93;0.70;;;;;;;;;;5105926;28;20031;-74
2023/02/19 14:50:31;;;;;;;3.33;0.52;;;;;;;;;;5087167;28;20429;-75
2023/02/19 14:53:05;;;;;;;5.32;0.73;;;;;;;;;;5080377;28;20060;-75
2023/02/19 14:55:39;;;;;;;2.60;1.15;;;;;;;;;;5086317;28;20058;-77
2023/02/19 14:58:17;;;;;;;3.25;0.73;;;;;;;;;;5087163;28;20044;-75
2023/02/19 15:00:49;;;;;;;3.17;0.70;;;;;;;;;;5086396;28;20055;-73
2023/02/19 15:03:43;;;;;;;3.13;0.52;;;;;;;;;;5069667;28;20056;-75
2023/02/19 15:06:18;;;;;;;2.95;0.40;;;;;;;;;;5086806;28;20047;-75
2023/02/19 15:08:54;;;;;;;3.22;0.82;;;;;;;;;;5087175;28;20048;-76
2023/02/19 15:11:27;;;;;;;5.60;0.70;;;;;;;;;;5101866;28;20031;-76
2023/02/19 15:14:01;;;;;;;2.97;0.80;;;;;;;;;;5087468;28;20043;-75
2023/02/19 15:16:34;;;;;;;2.35;0.68;;;;;;;;;;5087111;28;20048;-76
2023/02/19 15:19:09;;;;;;;0.93;0.43;;;;;;;;;;5085215;28;20049;-75
2023/02/19 15:21:46;;;;;;;4.00;1.40;;;;;;;;;;5067210;28;20091;-76
2023/02/19 15:24:19;;;;;;;5.60;1.13;;;;;;;;;;5081481;28;20063;-75
2023/02/19 15:26:53;;;;;;;5.20;1.23;;;;;;;;;;5068826;28;20047;-73
2023/02/19 15:29:27;;;;;;;2.38;0.70;;;;;;;;;;5068975;28;20500;-76
2023/02/19 15:32:00;;;;;;;2.97;0.57;;;;;;;;;;5085917;28;20047;-74
2023/02/19 15:34:32;;;;;;;2.78;0.88;;;;;;;;;;5085950;28;20040;-74
2023/02/19 15:37:13;;;;;;;5.95;1.48;;;;;;;;;;5087178;28;20036;-75
2023/02/19 15:39:46;;;;;;;1.85;0.45;;;;;;;;;;5086586;28;20048;-74
2023/02/19 15:42:35;;;;;;;2.85;0.50;;;;;;;;;;5085141;28;20415;-74
2023/02/19 15:45:22;;;;;;;7.80;1.30;;;;;;;;;;5104199;28;20044;-75
2023/02/19 15:48:25;;;;;;;5.93;1.98;;;;;;;;;;5105409;28;20398;-75
2023/02/19 15:51:06;;;;;;;3.83;0.70;;;;;;;;;;5041363;28;20056;-76
2023/02/19 15:54:18;;;;;;;5.63;0.73;;;;;;;;;;5085265;28;20043;-75
2023/02/19 15:56:59;;;;;;;6.95;0.70;;;;;;;;;;5086124;28;20071;-76
2023/02/19 15:59:39;;;;;;;10.45;1.23;;;;;;;;;;5086074;28;20040;-74
2023/02/19 16:02:14;;;;;;;2.25;0.60;;;;;;;;;;5086539;28;20055;-75
2023/02/19 16:04:47;;;;;;;6.75;0.90;;;;;;;;;;5086211;28;20047;-75
2023/02/19 16:07:34;;;;;;;5.55;0.82;;;;;;;;;;5084542;28;20158;-76
2023/02/19 16:10:24;;;;;;;5.50;0.80;;;;;;;;;;5085659;28;20032;-76
2023/02/19 16:13:00;;;;;;;1.30;0.50;;;;;;;;;;5064280;28;20372;-75